Time;durP1;ratioP1;P1;durP2;ratioP2;P2;SDS_P1;SDS_P2;PMS_P1;PMS_P2;Temp;Humidity;BMP_temperature;BMP_pressure;BME280_temperature;BME280_humidity;BME280_pressure;Samples;Min_cycle;Max_cycle;Signal;HPM_P1;HPM_P2
2022/12/19 00:00:49;;;;;;;50.00;33.45;;;;;;;-0.59;100.00;160419.78;5030132;28;20025;-62
2022/12/19 00:03:14;;;;;;;50.80;33.50;;;;;;;-0.55;100.00;160430.47;5033624;28;20045;-62
2022/12/19 00:05:40;;;;;;;50.33;32.28;;;;;;;-0.50;100.00;160443.91;5032610;28;20025;-62
2022/12/19 00:08:13;;;;;;;59.15;39.97;;;;;;;-0.52;100.00;160439.84;5033246;28;20067;-62
2022/12/19 00:10:39;;;;;;;52.95;36.22;;;;;;;-0.51;100.00;160441.22;5032218;28;20376;-62
2022/12/19 00:13:04;;;;;;;51.65;38.35;;;;;;;-0.53;100.00;160435.84;5031855;28;20021;-62
2022/12/19 00:15:31;;;;;;;49.53;35.08;;;;;;;-0.52;100.00;160439.84;5033430;28;20040;-63
2022/12/19 00:17:57;;;;;;;51.83;32.97;;;;;;;-0.50;100.00;160445.22;5031988;28;20101;-63
2022/12/19 00:20:22;;;;;;;56.90;37.10;;;;;;;-0.47;100.00;160450.59;5033645;28;20374;-63
2022/12/19 00:22:47;;;;;;;55.35;34.67;;;;;;;-0.49;100.00;160446.56;5031823;28;20127;-63
2022/12/19 00:25:13;;;;;;;50.50;32.95;;;;;;;-0.44;100.00;160458.59;5033157;28;20029;-63
2022/12/19 00:27:38;;;;;;;63.63;34.90;;;;;;;-0.45;100.00;160457.28;5031883;28;20037;-62
2022/12/19 00:30:04;;;;;;;56.58;35.83;;;;;;;-0.40;100.00;160470.66;5032921;28;20029;-62
2022/12/19 00:32:29;;;;;;;54.40;33.30;;;;;;;-0.37;100.00;160478.72;5031557;28;20042;-62
2022/12/19 00:34:54;;;;;;;57.80;38.63;;;;;;;-0.36;100.00;160481.41;5033267;28;20029;-62
2022/12/19 00:37:20;;;;;;;54.28;36.60;;;;;;;-0.30;100.00;160494.78;5031490;28;20393;-62
2022/12/19 00:39:45;;;;;;;47.65;34.15;;;;;;;-0.29;100.00;160497.47;5013586;28;20053;-62
2022/12/19 00:42:10;;;;;;;50.40;34.45;;;;;;;-0.26;100.00;160505.53;5011715;28;20042;-62
2022/12/19 00:44:36;;;;;;;55.88;34.72;;;;;;;-0.22;100.00;160517.53;5013098;28;20057;-62
2022/12/19 00:47:01;;;;;;;60.83;38.50;;;;;;;-0.19;100.00;160525.59;5011618;28;20037;-62
2022/12/19 00:49:26;;;;;;;52.47;35.03;;;;;;;-0.21;100.00;160520.22;5013700;28;20026;-62
2022/12/19 00:51:52;;;;;;;53.95;33.42;;;;;;;-0.20;100.00;160521.59;5011646;28;20382;-62
2022/12/19 00:54:17;;;;;;;51.97;34.45;;;;;;;-0.15;100.00;160534.97;5012889;28;20026;-62
2022/12/19 00:56:42;;;;;;;50.92;33.28;;;;;;;-0.12;100.00;160541.69;5012801;28;20042;-62
2022/12/19 00:59:09;;;;;;;57.60;37.97;;;;;;;-0.06;100.00;160557.75;5012499;28;20464;-63
2022/12/19 01:01:37;;;;;;;55.97;36.88;;;;;;;-0.05;100.00;160561.81;5011730;28;20065;-62
2022/12/19 01:04:06;;;;;;;50.13;32.15;;;;;;;0.02;100.00;160577.88;5012842;28;20077;-63
2022/12/19 01:06:31;;;;;;;52.53;33.95;;;;;;;0.03;100.00;160580.56;5011269;28;20488;-63
2022/12/19 01:08:56;;;;;;;47.47;34.90;;;;;;;0.05;100.00;160585.88;5012500;28;20037;-61
2022/12/19 01:12:44;;;;;;;54.97;34.42;;;;;;;0.09;100.00;160596.63;5011158;28;20034;-61
2022/12/19 01:14:08;;;;;;;48.90;33.72;;;;;;;0.02;100.00;160577.88;5012282;28;20029;-62
2022/12/19 01:16:34;;;;;;;51.35;33.20;;;;;;;0.13;100.00;160607.34;5011445;28;20030;-60
2022/12/19 01:18:59;;;;;;;52.55;36.58;;;;;;;0.16;100.00;160615.41;5012557;28;20029;-61
2022/12/19 01:21:24;;;;;;;49.90;32.55;;;;;;;0.20;100.00;160624.78;5010959;28;20038;-61
2022/12/19 01:23:50;;;;;;;55.05;35.58;;;;;;;0.23;100.00;160634.16;5012428;28;20030;-60
2022/12/19 01:26:15;;;;;;;41.80;31.35;;;;;;;0.26;100.00;160640.84;5011054;28;20056;-61
2022/12/19 01:28:40;;;;;;;50.13;33.97;;;;;;;0.31;100.00;160654.25;5012220;28;20410;-60
2022/12/19 01:31:06;;;;;;;46.38;36.25;;;;;;;0.30;100.00;160652.91;5011078;28;20041;-61
2022/12/19 01:33:31;;;;;;;50.85;34.13;;;;;;;0.28;100.00;160647.53;5012782;28;20026;-60
2022/12/19 01:35:56;;;;;;;51.25;34.45;;;;;;;0.17;100.00;160618.09;5010583;28;20499;-60
2022/12/19 01:38:22;;;;;;;50.50;32.65;;;;;;;0.30;100.00;160652.91;5012226;28;20026;-61
2022/12/19 01:40:52;;;;;;;52.40;34.90;;;;;;;0.26;100.00;160642.16;5010927;28;20029;-61
2022/12/19 01:43:17;;;;;;;57.83;37.35;;;;;;;0.29;100.00;160650.22;5011811;28;20025;-61
2022/12/19 01:45:45;;;;;;;59.95;37.05;;;;;;;0.21;100.00;160628.78;5010973;28;20054;-60
2022/12/19 01:48:21;;;;;;;56.25;38.65;;;;;;;0.20;100.00;160624.78;5012069;28;20473;-61
2022/12/19 01:50:59;;;;;;;65.40;41.38;;;;;;;0.23;100.00;160632.78;5010533;28;20030;-60
2022/12/19 01:53:28;;;;;;;59.57;38.60;;;;;;;0.26;100.00;160642.16;5012482;28;20030;-60
2022/12/19 01:55:54;;;;;;;60.72;38.42;;;;;;;0.25;100.00;160639.53;5010786;28;20461;-61
2022/12/19 01:58:20;;;;;;;62.40;40.65;;;;;;;0.28;100.00;160647.53;5011676;28;20018;-61
2022/12/19 02:00:46;;;;;;;58.00;39.95;;;;;;;0.24;100.00;160636.84;5010656;28;20037;-61
2022/12/19 02:03:21;;;;;;;71.88;41.65;;;;;;;0.26;100.00;160642.16;5011934;28;20033;-61
2022/12/19 02:05:47;;;;;;;64.55;39.95;;;;;;;0.27;100.00;160644.84;5010204;28;20087;-60
2022/12/19 02:08:13;;;;;;;62.22;39.13;;;;;;;0.28;100.00;160647.53;5011547;28;20030;-61
2022/12/19 02:10:38;;;;;;;64.78;42.10;;;;;;;0.34;100.00;160662.31;5010851;28;20385;-61
2022/12/19 02:13:04;;;;;;;66.25;42.78;;;;;;;0.30;100.00;160652.91;5011234;28;20026;-61
2022/12/19 02:15:36;;;;;;;73.28;43.20;;;;;;;0.37;100.00;160669.00;5011740;28;20432;-60
2022/12/19 02:18:08;;;;;;;79.28;41.95;;;;;;;0.40;100.00;160678.38;5011686;28;20022;-62
2022/12/19 02:20:48;;;;;;;70.22;40.50;;;;;;;0.42;100.00;160682.38;5009778;28;20384;-61
2022/12/19 02:23:34;;;;;;;70.38;44.20;;;;;;;0.41;100.00;160681.06;5011000;28;20340;-61
2022/12/19 02:26:18;;;;;;;79.20;46.20;;;;;;;0.44;100.00;160687.75;5009999;28;20053;-60
2022/12/19 02:29:20;;;;;;;71.13;41.90;;;;;;;0.46;100.00;160693.13;5011384;28;20441;-61
2022/12/19 02:32:03;;;;;;;79.13;45.40;;;;;;;0.49;100.00;160701.16;5010303;28;20200;-60
2022/12/19 02:34:38;;;;;;;85.40;49.25;;;;;;;0.52;100.00;160709.22;5010921;28;20026;-60
2022/12/19 02:37:24;;;;;;;82.20;43.58;;;;;;;0.56;100.00;160719.91;5009972;28;20091;-60
2022/12/19 02:40:12;;;;;;;84.40;51.28;;;;;;;0.57;100.00;160722.59;5011733;28;20417;-60
2022/12/19 02:42:41;;;;;;;83.32;48.10;;;;;;;0.58;100.00;160725.28;5009693;28;20044;-60
2022/12/19 02:45:10;;;;;;;71.15;44.75;;;;;;;0.61;100.00;160733.34;5010901;28;20112;-60
2022/12/19 02:47:37;;;;;;;78.30;44.15;;;;;;;0.68;100.00;160749.44;5009858;28;20131;-60
2022/12/19 02:50:03;;;;;;;85.97;49.13;;;;;;;0.75;100.00;160768.22;5011890;28;20053;-60
2022/12/19 02:52:29;;;;;;;81.90;49.40;;;;;;;0.79;100.00;160778.91;5009812;28;20053;-60
2022/12/19 02:54:59;;;;;;;84.05;48.05;;;;;;;0.81;100.00;160784.28;5011084;28;20108;-60
2022/12/19 02:57:27;;;;;;;79.35;48.85;;;;;;;0.86;100.00;160797.69;5009536;28;20037;-60
2022/12/19 03:00:10;;;;;;;80.40;42.22;;;;;;;0.90;100.00;160808.44;5011244;28;20021;-59
2022/12/19 03:03:09;;;;;;;88.45;48.00;;;;;;;0.94;100.00;160819.16;5026728;28;20069;-60
2022/12/19 03:05:45;;;;;;;76.72;43.45;;;;;;;0.96;100.00;160823.19;5029396;28;20099;-60
2022/12/19 03:08:24;;;;;;;86.50;47.70;;;;;;;1.01;100.00;160835.22;5030410;28;20029;-61
2022/12/19 03:11:06;;;;;;;83.97;48.95;;;;;;;1.07;100.00;160852.69;5029747;28;20036;-60
2022/12/19 03:13:39;;;;;;;71.40;41.40;;;;;;;1.09;100.00;160858.06;5030739;28;20498;-61
2022/12/19 03:16:08;;;;;;;76.60;43.72;;;;;;;1.15;100.00;160871.47;5028702;28;20135;-61
2022/12/19 03:18:34;;;;;;;74.30;41.72;;;;;;;1.17;100.00;160878.16;5030234;28;20028;-61
2022/12/19 03:21:14;;;;;;;71.63;40.00;;;;;;;1.19;100.00;160883.53;5028756;28;20404;-60
2022/12/19 03:23:40;;;;;;;63.72;41.53;;;;;;;1.25;100.00;160899.63;5030929;28;20030;-62
2022/12/19 03:26:09;;;;;;;59.72;42.08;;;;;;;1.29;100.00;160907.69;5028944;28;20135;-61
2022/12/19 03:28:44;;;;;;;69.57;43.75;;;;;;;1.33;100.00;160919.78;5030114;28;20129;-61
2022/12/19 03:31:11;;;;;;;74.63;41.83;;;;;;;1.37;100.00;160930.47;5028937;28;20073;-61
2022/12/19 03:33:39;;;;;;;60.38;37.33;;;;;;;1.39;100.00;160935.84;5030553;28;20108;-61
2022/12/19 03:36:11;;;;;;;67.47;42.22;;;;;;;1.44;100.00;160947.94;5031495;28;20046;-61
2022/12/19 03:38:39;;;;;;;54.13;36.78;;;;;;;1.44;100.00;160947.94;5034348;28;20025;-61
2022/12/19 03:41:08;;;;;;;67.15;39.25;;;;;;;1.44;100.00;160947.94;5032586;28;20034;-61
2022/12/19 03:43:35;;;;;;;71.10;41.30;;;;;;;1.48;100.00;160957.31;5034192;28;20032;-61
2022/12/19 03:46:12;;;;;;;69.25;38.03;;;;;;;1.43;100.00;160945.25;5032591;28;20041;-61
2022/12/19 03:48:47;;;;;;;66.43;41.03;;;;;;;1.52;100.00;160969.41;5034069;28;20055;-62
2022/12/19 03:51:31;;;;;;;70.72;43.97;;;;;;;1.62;100.00;160993.53;5032815;28;20044;-61
2022/12/19 03:54:08;;;;;;;64.22;39.30;;;;;;;1.64;100.00;160998.91;5034374;28;20029;-62
2022/12/19 03:56:44;;;;;;;65.63;38.28;;;;;;;1.70;100.00;161015.00;5032186;28;20030;-62
2022/12/19 03:59:17;;;;;;;68.78;38.78;;;;;;;1.77;100.00;161032.44;5033743;28;20112;-62
2022/12/19 04:01:44;;;;;;;67.20;42.33;;;;;;;1.78;100.00;161035.16;5032579;28;20131;-62
2022/12/19 04:04:11;;;;;;;73.68;42.58;;;;;;;1.80;100.00;161041.84;5033510;28;20029;-62
2022/12/19 04:06:39;;;;;;;67.90;40.75;;;;;;;1.77;100.00;161033.78;5032480;28;20411;-62
2022/12/19 04:09:05;;;;;;;81.47;43.97;;;;;;;1.81;100.00;161044.53;5033683;28;20029;-62
2022/12/19 04:11:37;;;;;;;82.00;43.42;;;;;;;1.82;100.00;161047.22;5031981;28;20033;-62
2022/12/19 04:14:10;;;;;;;63.50;38.10;;;;;;;1.88;100.00;161061.94;5034018;28;20516;-60
2022/12/19 04:16:55;;;;;;;78.60;44.50;;;;;;;1.99;100.00;161090.13;5032502;28;20048;-60
2022/12/19 04:19:28;;;;;;;80.82;45.65;;;;;;;1.99;100.00;161091.50;5033245;28;20052;-59
2022/12/19 04:22:11;;;;;;;74.07;48.88;;;;;;;2.02;100.00;161098.19;5032423;28;20041;-60
2022/12/19 04:24:41;;;;;;;67.30;40.88;;;;;;;2.06;100.00;161108.91;5033721;28;20033;-59
2022/12/19 04:27:08;;;;;;;71.75;44.50;;;;;;;2.10;100.00;161118.31;5014105;28;20046;-61
2022/12/19 04:29:37;;;;;;;60.67;39.17;;;;;;;2.15;100.00;161133.09;5013745;28;20018;-61
2022/12/19 04:32:04;;;;;;;62.28;40.95;;;;;;;2.16;100.00;161135.78;5012194;28;20049;-61
2022/12/19 04:34:30;;;;;;;60.75;39.50;;;;;;;2.24;100.00;161154.56;5013314;28;20029;-61
2022/12/19 04:36:55;;;;;;;75.20;44.90;;;;;;;2.22;100.00;161150.56;5012018;28;20034;-61
2022/12/19 04:39:21;;;;;;;67.07;43.60;;;;;;;2.24;100.00;161154.56;5013580;28;20021;-61
2022/12/19 04:41:46;;;;;;;77.68;46.72;;;;;;;2.25;100.00;161157.25;5011859;28;20544;-59
2022/12/19 04:44:11;;;;;;;68.60;39.22;;;;;;;2.29;100.00;161167.97;5013186;28;20049;-60
2022/12/19 04:46:37;;;;;;;76.30;45.60;;;;;;;2.26;100.00;161159.94;5010999;28;20125;-60
2022/12/19 04:49:02;;;;;;;70.57;46.45;;;;;;;2.28;100.00;161165.28;5012756;28;20042;-60
2022/12/19 04:51:27;;;;;;;78.05;45.35;;;;;;;2.29;100.00;161167.97;5012144;28;20034;-60
2022/12/19 04:53:53;;;;;;;94.53;45.05;;;;;;;2.31;100.00;161174.69;5013362;28;20515;-60
2022/12/19 04:56:18;;;;;;;84.93;48.20;;;;;;;2.32;100.00;161176.06;5011396;28;20038;-60
2022/12/19 04:58:43;;;;;;;84.35;46.92;;;;;;;2.34;100.00;161182.75;5012137;28;20022;-60
2022/12/19 05:01:09;;;;;;;81.88;47.60;;;;;;;2.40;100.00;161197.53;5011743;28;20397;-61
2022/12/19 05:03:35;;;;;;;75.00;48.38;;;;;;;2.39;100.00;161194.84;5014869;28;20034;-64
2022/12/19 05:06:13;;;;;;;90.35;47.33;;;;;;;2.38;100.00;161193.47;5031195;28;20452;-61
2022/12/19 05:08:40;;;;;;;77.93;46.72;;;;;;;2.38;100.00;161192.16;5015133;28;20033;-61
2022/12/19 05:11:07;;;;;;;78.85;47.75;;;;;;;2.41;100.00;160979.53;5012174;28;20505;-62
2022/12/19 05:13:32;;;;;;;73.22;45.17;;;;;;;2.41;100.00;160636.25;5023591;28;20078;-60
2022/12/19 05:16:01;;;;;;;84.18;52.95;;;;;;;2.45;100.00;160145.63;5011559;28;20423;-60
2022/12/19 05:18:27;;;;;;;85.10;50.22;;;;;;;2.50;100.00;159050.25;5012315;28;20064;-60
2022/12/19 05:20:52;;;;;;;83.75;51.30;;;;;;;2.50;100.00;158436.16;5011443;28;20061;-60
2022/12/19 05:23:18;;;;;;;84.38;46.92;;;;;;;2.56;100.00;156984.19;5012637;28;20022;-60
2022/12/19 05:25:43;;;;;;;85.38;51.40;;;;;;;2.55;100.00;156641.28;5011019;28;20129;-60
2022/12/19 05:28:09;;;;;;;97.22;48.20;;;;;;;2.58;100.00;155488.16;5012576;28;20034;-61
2022/12/19 05:30:34;;;;;;;84.18;46.58;;;;;;;2.63;100.00;153939.00;5012518;28;20507;-61
2022/12/19 05:33:00;;;;;;;87.18;47.50;;;;;;;2.64;100.00;153245.06;5027016;28;20029;-60
2022/12/19 05:35:25;;;;;;;81.50;48.25;;;;;;;2.72;100.00;151871.28;5020364;28;20076;-61
2022/12/19 05:37:51;;;;;;;87.03;53.78;;;;;;;2.72;100.00;151176.28;5010877;28;20038;-60
2022/12/19 05:40:16;;;;;;;81.95;50.90;;;;;;;2.73;100.00;150482.63;5011698;28;20029;-60
2022/12/19 05:42:41;;;;;;;92.50;53.92;;;;;;;2.78;100.00;149451.06;5009644;28;20049;-61
2022/12/19 05:45:07;;;;;;;84.78;52.55;;;;;;;2.79;100.00;148409.63;5012066;28;20050;-60
2022/12/19 05:47:33;;;;;;;89.72;51.03;;;;;;;2.82;100.00;147024.38;5010467;28;20616;-61
2022/12/19 05:49:58;;;;;;;104.78;54.58;;;;;;;2.84;100.00;146334.88;5011962;28;20022;-60
2022/12/19 05:52:23;;;;;;;86.13;51.08;;;;;;;2.85;100.00;145294.13;5010801;28;20042;-60
2022/12/19 05:54:49;;;;;;;97.72;49.55;;;;;;;2.77;100.00;144232.06;5011998;28;20026;-60
2022/12/19 05:57:15;;;;;;;92.32;55.38;;;;;;;2.97;100.00;142887.09;5010588;28;20048;-59
2022/12/19 05:59:40;;;;;;;79.80;52.60;;;;;;;3.02;100.00;141856.34;5011883;28;20420;-60
2022/12/19 06:02:06;;;;;;;89.38;52.60;;;;;;;3.01;100.00;141159.13;5010147;28;20082;-61
2022/12/19 06:04:31;;;;;;;79.85;49.83;;;;;;;3.07;100.00;139783.56;5012197;28;20439;-61
2022/12/19 06:06:57;;;;;;;92.20;49.42;;;;;;;3.08;100.00;139090.06;5010339;28;20512;-61
2022/12/19 06:09:22;;;;;;;81.95;49.17;;;;;;;3.12;100.00;138405.88;5011556;28;20547;-61
2022/12/19 06:11:48;;;;;;;80.10;48.00;;;;;;;3.13;100.00;137019.34;5010561;28;20389;-61
2022/12/19 06:14:13;;;;;;;81.60;51.13;;;;;;;3.22;100.00;136343.19;5011771;28;20088;-60
2022/12/19 06:16:38;;;;;;;84.30;49.13;;;;;;;3.23;100.00;135651.22;5010076;28;20030;-61
2022/12/19 06:19:04;;;;;;;73.00;46.97;;;;;;;3.30;100.00;134625.72;5025995;28;20041;-61
2022/12/19 06:21:29;;;;;;;80.05;49.10;;;;;;;3.38;100.00;133602.41;5029984;28;20045;-61
2022/12/19 06:23:55;;;;;;;81.60;48.17;;;;;;;3.43;100.00;132572.50;5031196;28;20099;-61
2022/12/19 06:26:21;;;;;;;75.28;47.10;;;;;;;3.45;100.00;131883.06;5030083;28;20030;-61
2022/12/19 06:28:48;;;;;;;72.35;45.63;;;;;;;3.41;100.00;131874.31;5031380;28;20024;-61
2022/12/19 06:31:14;;;;;;;78.20;49.85;;;;;;;3.46;100.00;131191.47;5029812;28;20104;-61
2022/12/19 06:33:40;;;;;;;72.05;43.58;;;;;;;3.49;100.00;131198.00;5031478;28;20117;-61
2022/12/19 06:36:09;;;;;;;77.32;49.22;;;;;;;3.45;100.00;131536.19;5029510;28;20040;-61
2022/12/19 06:38:35;;;;;;;70.10;45.55;;;;;;;3.51;100.00;131200.16;5031094;28;20025;-60
2022/12/19 06:43:45;;;;;;;72.93;45.80;;;;;;;3.57;100.00;130866.28;5031299;28;20040;-61
2022/12/19 06:46:10;;;;;;;65.20;45.78;;;;;;;3.61;100.00;130876.03;5029053;28;20042;-61
2022/12/19 06:48:36;;;;;;;71.35;44.00;;;;;;;3.65;100.00;130884.66;5031019;28;20044;-61
2022/12/19 06:51:02;;;;;;;63.50;42.10;;;;;;;3.69;100.00;130892.22;5018736;28;20041;-61
2022/12/19 06:53:28;;;;;;;63.55;42.28;;;;;;;3.70;100.00;130893.31;5026634;28;20074;-61
2022/12/19 06:55:56;;;;;;;64.13;42.33;;;;;;;3.72;100.00;130897.66;5029131;28;20044;-61
2022/12/19 06:58:22;;;;;;;66.18;43.63;;;;;;;3.71;100.00;131243.53;5030733;28;20032;-60
2022/12/19 07:00:47;;;;;;;68.45;42.80;;;;;;;3.76;100.00;131254.34;5029138;28;20025;-60
2022/12/19 07:03:17;;;;;;;69.72;44.30;;;;;;;3.77;100.00;131603.56;5030309;28;20029;-61
2022/12/19 07:05:43;;;;;;;70.38;42.65;;;;;;;3.80;100.00;131957.16;5029280;28;20022;-60
2022/12/19 07:08:09;;;;;;;74.35;44.55;;;;;;;3.86;100.00;132663.47;5026361;28;20033;-61
2022/12/19 07:10:34;;;;;;;67.88;40.88;;;;;;;3.87;100.00;133011.75;5008874;28;20030;-61
2022/12/19 07:13:00;;;;;;;69.30;41.72;;;;;;;3.92;100.00;132676.63;5011746;28;20068;-61
2022/12/19 07:15:25;;;;;;;72.63;40.72;;;;;;;3.95;100.00;132335.94;5018252;28;20040;-60
2022/12/19 07:17:51;;;;;;;59.55;42.20;;;;;;;3.99;100.00;131996.38;5028157;28;20042;-61
2022/12/19 07:20:18;;;;;;;67.72;44.97;;;;;;;4.05;100.00;130967.94;5014589;28;20029;-61
2022/12/19 07:22:44;;;;;;;65.97;40.38;;;;;;;4.00;100.00;130608.94;5009286;28;20073;-60
2022/12/19 07:25:09;;;;;;;67.10;39.17;;;;;;;4.05;100.00;130620.81;5020092;28;20146;-60
2022/12/19 07:27:35;;;;;;;58.55;38.65;;;;;;;4.11;100.00;129938.41;5029030;28;20390;-60
2022/12/19 07:30:02;;;;;;;69.53;43.78;;;;;;;4.13;100.00;129596.66;5030106;28;20021;-61
2022/12/19 07:32:27;;;;;;;64.95;42.70;;;;;;;4.19;100.00;129260.31;5027197;28;20194;-60
2022/12/19 07:34:53;;;;;;;58.78;41.15;;;;;;;4.20;100.00;129262.44;5029119;28;20488;-60
2022/12/19 07:37:18;;;;;;;61.50;39.20;;;;;;;4.19;100.00;129260.31;5028821;28;20033;-60
2022/12/19 07:39:43;;;;;;;67.47;40.58;;;;;;;4.22;100.00;128919.59;5029902;28;20029;-60
2022/12/19 07:42:09;;;;;;;66.43;46.33;;;;;;;4.25;100.00;128578.94;5028889;28;20033;-59
2022/12/19 07:44:34;;;;;;;59.28;39.90;;;;;;;4.29;100.00;128240.34;5030252;28;20107;-60
2022/12/19 07:46:59;;;;;;;74.32;43.38;;;;;;;4.25;100.00;128579.97;5028273;28;20033;-60
2022/12/19 07:49:25;;;;;;;75.53;44.97;;;;;;;4.28;100.00;128238.25;5030416;28;20036;-60
2022/12/19 07:51:50;;;;;;;67.43;42.97;;;;;;;4.27;100.00;128584.22;5029117;28;20117;-60
2022/12/19 07:54:15;;;;;;;66.38;40.90;;;;;;;4.30;100.00;128589.53;5029788;28;20025;-60
2022/12/19 07:56:41;;;;;;;69.88;45.40;;;;;;;4.30;100.00;128589.53;5029008;28;20108;-60
2022/12/19 07:59:06;;;;;;;69.57;43.90;;;;;;;4.36;100.00;128254.09;5030173;28;20021;-60
2022/12/19 08:01:31;;;;;;;67.82;45.17;;;;;;;4.37;100.00;128256.22;5028511;28;20439;-60
2022/12/19 08:03:57;;;;;;;64.68;43.65;;;;;;;4.40;100.00;128263.63;5030066;28;20037;-59
2022/12/19 08:06:23;;;;;;;77.50;44.50;;;;;;;4.44;100.00;127924.94;5028886;28;20049;-60
2022/12/19 08:08:49;;;;;;;65.57;41.72;;;;;;;4.41;100.00;127918.66;5029785;28;20108;-60
2022/12/19 08:11:17;;;;;;;63.20;43.88;;;;;;;4.49;100.00;127933.41;5027673;28;20136;-60
2022/12/19 08:13:43;;;;;;;63.60;38.72;;;;;;;4.49;100.00;127934.44;5029588;28;20033;-60
2022/12/19 08:16:09;;;;;;;64.18;42.67;;;;;;;4.45;100.00;127927.06;5028146;28;20044;-60
2022/12/19 08:18:35;;;;;;;65.72;45.70;;;;;;;4.53;100.00;127942.91;5030223;28;20017;-60
2022/12/19 08:21:00;;;;;;;59.60;38.05;;;;;;;4.59;100.00;127607.31;5028413;28;20033;-60
2022/12/19 08:23:25;;;;;;;68.35;42.08;;;;;;;4.59;100.00;127607.31;5032521;28;20030;-60
2022/12/19 08:26:02;;;;;;;55.17;41.28;;;;;;;4.62;100.00;127613.66;5032189;28;20408;-60
2022/12/19 08:28:29;;;;;;;60.28;41.70;;;;;;;4.68;100.00;127279.06;5033702;28;20033;-60
2022/12/19 08:30:54;;;;;;;59.50;42.28;;;;;;;4.72;100.00;126940.28;5031823;28;20040;-60
2022/12/19 08:33:19;;;;;;;62.42;38.97;;;;;;;4.74;100.00;127290.63;5033563;28;20033;-60
2022/12/19 08:35:45;;;;;;;56.10;39.55;;;;;;;4.76;100.00;127295.84;5032010;28;20083;-60
2022/12/19 08:38:10;;;;;;;64.80;39.25;;;;;;;4.73;100.00;127288.50;5032780;28;20014;-60
2022/12/19 08:40:35;;;;;;;64.68;40.60;;;;;;;4.81;100.00;127304.25;5032006;28;20021;-60
2022/12/19 08:43:01;;;;;;;58.50;36.70;;;;;;;4.85;100.00;126966.41;5033167;28;20025;-60
2022/12/19 08:45:26;;;;;;;56.88;36.08;;;;;;;4.88;100.00;126624.38;5032884;28;20060;-60
2022/12/19 08:47:53;;;;;;;59.35;36.63;;;;;;;4.92;100.00;126285.50;5031572;28;20034;-60
2022/12/19 08:50:18;;;;;;;51.13;35.30;;;;;;;4.93;100.00;126287.59;5032961;28;20029;-60
2022/12/19 08:52:43;;;;;;;49.65;34.55;;;;;;;4.94;100.00;126289.69;5031333;28;20064;-60
2022/12/19 08:55:09;;;;;;;53.78;33.53;;;;;;;4.99;100.00;125951.81;5032834;28;20018;-60
2022/12/19 08:57:35;;;;;;;56.70;35.58;;;;;;;5.01;100.00;126304.25;5031561;28;20041;-60
2022/12/19 09:00:00;;;;;;;48.42;35.78;;;;;;;5.02;100.00;126653.66;5032320;28;20029;-60
2022/12/19 09:02:25;;;;;;;48.75;33.92;;;;;;;5.01;100.00;127346.25;5031609;28;20488;-60
2022/12/19 09:04:51;;;;;;;47.25;32.42;;;;;;;5.03;100.00;128392.69;5032830;28;20441;-60
2022/12/19 09:07:16;;;;;;;42.35;30.77;;;;;;;5.03;100.00;128392.69;5023344;28;20045;-60
2022/12/19 09:09:43;;;;;;;51.90;29.05;;;;;;;5.07;100.00;129791.41;5013765;28;20079;-59
2022/12/19 09:12:08;;;;;;;53.67;32.20;;;;;;;5.07;100.00;130485.59;5011397;28;20072;-60
2022/12/19 09:14:34;;;;;;;44.45;30.75;;;;;;;5.16;100.00;131548.28;5032293;28;20389;-60
2022/12/19 09:16:59;;;;;;;45.63;30.65;;;;;;;5.17;100.00;132592.97;5030832;28;20034;-60
2022/12/19 09:19:25;;;;;;;34.10;26.88;;;;;;;5.18;100.00;134335.03;5032234;28;20129;-60
2022/12/19 09:21:50;;;;;;;41.42;28.08;;;;;;;5.21;100.00;136082.44;5030781;28;20045;-60
2022/12/19 09:24:15;;;;;;;44.67;28.63;;;;;;;5.26;100.00;137138.53;5032351;28;20029;-60
2022/12/19 09:26:41;;;;;;;35.75;27.85;;;;;;;5.26;100.00;139227.97;5030732;28;20052;-60
2022/12/19 09:29:07;;;;;;;46.15;31.77;;;;;;;5.28;100.00;140628.06;5031223;28;20038;-60
2022/12/19 09:31:32;;;;;;;40.25;28.10;;;;;;;5.33;100.00;141337.09;5031180;28;20035;-60
2022/12/19 09:33:58;;;;;;;37.53;26.20;;;;;;;5.37;100.00;141694.03;5031610;28;20384;-60
2022/12/19 09:36:24;;;;;;;43.17;27.00;;;;;;;5.38;100.00;143092.97;5030398;28;20476;-60
2022/12/19 09:38:52;;;;;;;34.22;24.45;;;;;;;5.43;100.00;144149.34;5032388;28;20033;-60
2022/12/19 09:41:37;;;;;;;31.30;24.05;;;;;;;5.45;100.00;145550.50;5030453;28;20420;-60
2022/12/19 09:44:30;;;;;;;35.05;25.38;;;;;;;5.51;100.00;146961.94;5031484;28;20026;-60
2022/12/19 09:46:59;;;;;;;34.40;23.23;;;;;;;5.54;100.00;149065.72;5001623;28;20045;-60
2022/12/19 09:49:28;;;;;;;38.35;25.70;;;;;;;5.53;100.00;150461.47;5030995;28;20109;-60
2022/12/19 09:52:01;;;;;;;34.28;24.10;;;;;;;5.56;100.00;151517.94;5029126;28;20065;-60
2022/12/19 09:54:51;;;;;;;36.65;22.98;;;;;;;5.57;100.00;151170.75;5031055;28;20036;-60
2022/12/19 09:57:22;;;;;;;45.97;25.85;;;;;;;5.60;100.00;149779.66;5029623;28;20038;-59
2022/12/19 09:59:52;;;;;;;30.08;22.70;;;;;;;5.59;100.00;149426.34;5030695;28;20044;-59
2022/12/19 10:02:53;;;;;;;33.05;23.35;;;;;;;5.58;100.00;148726.06;5029927;28;20050;-60
2022/12/19 10:05:43;;;;;;;35.40;26.10;;;;;;;5.59;100.00;147330.78;5018251;28;20033;-59
2022/12/19 10:08:17;;;;;;;35.03;25.65;;;;;;;5.61;100.00;146636.94;5029804;28;20440;-60
2022/12/19 10:10:57;;;;;;;32.70;23.75;;;;;;;5.66;100.00;145599.91;5030403;28;20039;-59
2022/12/19 10:13:36;;;;;;;34.33;26.48;;;;;;;5.68;100.00;144906.19;5031381;28;20021;-59
2022/12/19 10:16:14;;;;;;;36.60;27.08;;;;;;;5.68;100.00;144556.97;5030112;28;20041;-60
2022/12/19 10:18:50;;;;;;;35.97;23.83;;;;;;;5.72;100.00;143171.06;5031505;28;20033;-60
2022/12/19 10:21:34;;;;;;;36.25;27.38;;;;;;;5.69;100.00;142814.94;5029726;28;20045;-59
2022/12/19 10:24:00;;;;;;;38.22;25.70;;;;;;;5.72;100.00;142472.94;5030910;28;20481;-60
2022/12/19 10:26:33;;;;;;;30.38;24.33;;;;;;;5.77;100.00;141785.44;5029978;28;20121;-60
2022/12/19 10:29:33;;;;;;;40.35;24.73;;;;;;;5.82;100.00;141446.97;5030933;28;20037;-60
2022/12/19 10:32:06;;;;;;;38.28;26.92;;;;;;;5.80;100.00;141443.47;5014461;28;20070;-60
2022/12/19 10:34:39;;;;;;;41.47;26.90;;;;;;;5.88;100.00;141460.97;5027734;28;20061;-60
2022/12/19 10:37:25;;;;;;;33.70;25.27;;;;;;;5.88;100.00;142160.28;5029123;28;20057;-60
2022/12/19 10:40:02;;;;;;;32.45;25.40;;;;;;;5.89;100.00;143208.97;5031083;28;20030;-60
2022/12/19 10:42:58;;;;;;;31.70;25.40;;;;;;;5.91;100.00;143561.72;5029708;28;20052;-60
2022/12/19 10:45:29;;;;;;;32.92;24.67;;;;;;;5.90;100.00;144259.09;5030110;28;20053;-60
2022/12/19 10:47:56;;;;;;;38.50;26.52;;;;;;;5.91;100.00;144261.50;5028997;28;20072;-60
2022/12/19 10:50:25;;;;;;;49.33;27.52;;;;;;;5.90;100.00;144608.41;5011164;28;20026;-60
2022/12/19 10:52:55;;;;;;;;;;;;;;;5.95;100.00;143921.69;5010245;28;20042;-60
2022/12/19 10:55:28;;;;;;;34.60;24.65;;;;;;;5.95;100.00;143920.53;5011396;28;19924;-60
2022/12/19 10:57:57;;;;;;;35.60;26.90;;;;;;;5.97;100.00;143925.25;5009497;28;20037;-60
2022/12/19 11:00:23;;;;;;;41.55;27.77;;;;;;;5.96;100.00;143225.53;5011264;28;20037;-60
2022/12/19 11:02:50;;;;;;;34.63;25.05;;;;;;;6.00;100.00;142536.56;5023426;28;20045;-59
2022/12/19 11:05:28;;;;;;;39.28;28.05;;;;;;;6.01;100.00;142538.94;5030317;28;20063;-60
2022/12/19 11:08:15;;;;;;;31.80;22.67;;;;;;;6.07;100.00;141852.31;5029408;28;20038;-59
2022/12/19 11:10:52;;;;;;;36.22;25.20;;;;;;;6.10;100.00;141510.13;5028697;28;20045;-59
2022/12/19 11:13:24;;;;;;;34.38;25.63;;;;;;;6.09;100.00;141507.78;5030207;28;20049;-59
2022/12/19 11:15:55;;;;;;;34.95;24.92;;;;;;;6.10;100.00;141160.97;5025013;28;20040;-59
2022/12/19 11:18:23;;;;;;;38.95;26.83;;;;;;;6.10;100.00;140811.84;5021447;28;20025;-60
2022/12/19 11:20:58;;;;;;;33.90;22.02;;;;;;;6.08;100.00;140458.06;5024883;28;20026;-60